createdAt,value
2022-08-20T00:01:01.793Z,12.60
2022-08-20T00:03:41.445Z,12.93
2022-08-20T00:06:19.419Z,13.63
2022-08-20T00:08:46.798Z,13.38
2022-08-20T00:11:18.328Z,13.90
2022-08-20T00:13:54.118Z,13.07
2022-08-20T00:16:22.570Z,13.20
2022-08-20T00:18:49.318Z,13.50
2022-08-20T00:21:19.082Z,13.57
2022-08-20T00:23:48.221Z,12.27
2022-08-20T00:26:15.513Z,13.60
2022-08-20T00:28:41.946Z,12.88
2022-08-20T00:31:11.151Z,13.05
2022-08-20T00:33:38.399Z,12.55
2022-08-20T00:36:10.698Z,13.90
2022-08-20T00:38:38.396Z,14.10
2022-08-20T00:41:05.097Z,15.05
2022-08-20T00:43:46.838Z,14.13
2022-08-20T00:46:31.294Z,14.15
2022-08-20T00:48:59.960Z,13.27
2022-08-20T00:51:40.972Z,13.30
2022-08-20T00:54:34.458Z,14.30
2022-08-20T00:57:09.089Z,13.90
2022-08-20T00:59:38.177Z,13.10
2022-08-20T01:02:08.238Z,13.65
2022-08-20T01:04:35.375Z,13.65
2022-08-20T01:07:05.314Z,13.90
2022-08-20T01:09:49.533Z,14.38
2022-08-20T01:12:18.986Z,14.30
2022-08-20T01:14:45.849Z,14.30
2022-08-20T01:17:18.807Z,14.30
2022-08-20T01:19:51.928Z,14.43
2022-08-20T01:22:44.705Z,14.23
2022-08-20T01:25:17.180Z,14.05
2022-08-20T01:27:45.029Z,13.75
2022-08-20T01:30:12.589Z,15.48
2022-08-20T01:32:39.064Z,14.60
2022-08-20T01:35:06.003Z,14.10
2022-08-20T01:37:32.440Z,14.38
2022-08-20T01:39:59.425Z,13.93
2022-08-20T01:42:38.078Z,14.05
2022-08-20T01:45:26.926Z,13.98
2022-08-20T01:47:54.545Z,14.13
2022-08-20T01:50:24.636Z,13.88
2022-08-20T01:53:08.753Z,14.38
2022-08-20T01:55:35.213Z,13.57
2022-08-20T01:58:02.002Z,13.60
2022-08-20T02:00:28.543Z,14.23
2022-08-20T02:02:55.073Z,14.65
2022-08-20T02:05:22.601Z,13.75
2022-08-20T02:07:49.148Z,13.63
2022-08-20T02:10:16.985Z,14.90
2022-08-20T02:12:43.572Z,14.23
2022-08-20T02:15:11.156Z,13.43
2022-08-20T02:17:39.195Z,13.77
2022-08-20T02:20:18.594Z,13.18
2022-08-20T02:22:53.918Z,14.38
2022-08-20T02:25:23.578Z,14.02
2022-08-20T02:27:52.353Z,13.55
2022-08-20T02:30:28.176Z,14.52
2022-08-20T02:32:56.461Z,13.48
2022-08-20T02:35:23.646Z,14.63
2022-08-20T02:37:50.876Z,14.02
2022-08-20T02:40:30.081Z,15.40
2022-08-20T02:42:58.084Z,13.90
2022-08-20T02:45:24.689Z,13.18
2022-08-20T02:47:54.271Z,14.07
2022-08-20T02:50:22.892Z,14.43
2022-08-20T02:52:52.002Z,14.00
2022-08-20T02:55:27.966Z,13.52
2022-08-20T02:57:59.870Z,13.98
2022-08-20T03:00:27.585Z,14.23
2022-08-20T03:02:54.034Z,13.68
2022-08-20T03:05:20.542Z,14.15
2022-08-20T03:07:50.340Z,14.95
2022-08-20T03:10:17.421Z,15.07
2022-08-20T03:12:43.893Z,15.23
2022-08-20T03:15:17.557Z,14.88
2022-08-20T03:17:45.041Z,15.70
2022-08-20T03:20:12.084Z,14.02
2022-08-20T03:22:38.513Z,15.43
2022-08-20T03:25:05.282Z,15.63
2022-08-20T03:27:36.129Z,14.25
2022-08-20T03:30:05.872Z,15.60
2022-08-20T03:32:32.366Z,15.55
2022-08-20T03:34:58.814Z,15.95
2022-08-20T03:37:25.359Z,16.67
2022-08-20T03:39:52.086Z,17.60
2022-08-20T03:42:18.622Z,17.92
2022-08-20T03:44:45.055Z,16.75
2022-08-20T03:47:11.845Z,18.38
2022-08-20T03:49:38.291Z,17.80
2022-08-20T03:52:04.919Z,17.27
2022-08-20T03:54:31.893Z,17.80
2022-08-20T03:56:59.335Z,17.45
2022-08-20T03:59:25.831Z,17.90
2022-08-20T04:01:52.639Z,17.55
2022-08-20T04:04:20.463Z,17.83
2022-08-20T04:06:47.569Z,18.67
2022-08-20T04:09:14.490Z,17.90
2022-08-20T04:11:41.873Z,17.70
2022-08-20T04:14:10.428Z,16.90
2022-08-20T04:16:39.395Z,16.42
2022-08-20T04:19:06.219Z,17.60
2022-08-20T04:21:35.081Z,17.73
2022-08-20T04:24:04.246Z,17.73
2022-08-20T04:26:31.473Z,18.90
2022-08-20T04:28:58.087Z,18.48
2022-08-20T04:31:25.393Z,16.73
2022-08-20T04:33:52.020Z,17.27
2022-08-20T04:36:18.457Z,19.23
2022-08-20T04:38:47.832Z,17.42
2022-08-20T04:41:23.191Z,17.50
2022-08-20T04:43:51.807Z,18.15
2022-08-20T04:46:19.244Z,17.20
2022-08-20T04:48:48.699Z,16.38
2022-08-20T04:51:16.994Z,16.38
2022-08-20T04:53:51.994Z,15.27
2022-08-20T04:56:23.166Z,15.43
2022-08-20T04:58:51.311Z,17.58
2022-08-20T05:01:17.941Z,15.90
2022-08-20T05:03:44.559Z,16.33
2022-08-20T05:06:11.979Z,14.82
2022-08-20T05:08:39.489Z,13.95
2022-08-20T05:11:33.692Z,15.60
2022-08-20T05:13:53.555Z,15.10
2022-08-20T05:16:20.892Z,14.68
2022-08-20T05:18:52.338Z,14.88
2022-08-20T05:21:20.033Z,14.55
2022-08-20T05:23:46.495Z,14.85
2022-08-20T05:26:15.697Z,15.40
2022-08-20T05:28:58.036Z,15.60
2022-08-20T05:31:31.889Z,15.30
2022-08-20T05:34:03.810Z,15.50
2022-08-20T05:36:30.270Z,15.35
2022-08-20T05:38:56.869Z,15.32
2022-08-20T05:41:28.932Z,15.10
2022-08-20T05:43:56.022Z,14.73
2022-08-20T05:46:22.963Z,14.52
2022-08-20T05:48:50.679Z,13.82
2022-08-20T05:51:17.582Z,14.43
2022-08-20T05:53:44.085Z,14.63
2022-08-20T05:56:13.311Z,15.32
2022-08-20T05:58:39.783Z,16.40
2022-08-20T06:01:06.332Z,15.38
2022-08-20T06:03:51.272Z,16.70
2022-08-20T06:06:18.378Z,15.13
2022-08-20T06:09:04.462Z,16.45
2022-08-20T06:11:36.824Z,15.07
2022-08-20T06:14:03.892Z,15.45
2022-08-20T06:16:30.767Z,16.20
2022-08-20T06:18:58.517Z,16.90
2022-08-20T06:21:25.131Z,16.92
2022-08-20T06:23:57.609Z,16.20
2022-08-20T06:26:29.994Z,15.88
2022-08-20T06:28:58.623Z,16.05
2022-08-20T06:31:25.071Z,16.67
2022-08-20T06:33:51.570Z,15.55
2022-08-20T06:36:18.780Z,15.57
2022-08-20T06:38:46.274Z,14.32
2022-08-20T06:41:12.953Z,14.60
2022-08-20T06:43:39.439Z,16.25
2022-08-20T06:46:06.849Z,14.70
2022-08-20T06:48:34.170Z,15.02
2022-08-20T06:51:01.368Z,13.80
2022-08-20T06:53:28.838Z,13.85
2022-08-20T06:55:55.974Z,14.27
2022-08-20T06:58:37.628Z,12.98
2022-08-20T07:01:09.948Z,13.43
2022-08-20T07:03:38.250Z,14.35
2022-08-20T07:06:05.357Z,14.23
2022-08-20T07:08:31.791Z,13.90
2022-08-20T07:10:59.487Z,13.70
2022-08-20T07:13:25.956Z,12.48
2022-08-20T07:15:54.109Z,14.38
2022-08-20T07:18:27.765Z,11.82
2022-08-20T07:20:57.377Z,13.93
2022-08-20T07:23:25.407Z,13.52
2022-08-20T07:25:51.895Z,12.32
2022-08-20T07:28:21.852Z,11.98
2022-08-20T07:31:12.324Z,11.52
2022-08-20T07:33:41.662Z,11.80
2022-08-20T07:36:08.982Z,13.35
2022-08-20T07:38:36.619Z,13.35
2022-08-20T07:41:09.844Z,12.95
2022-08-20T07:43:36.336Z,14.05
2022-08-20T07:46:08.721Z,12.75
2022-08-20T07:48:38.045Z,12.00
2022-08-20T07:51:05.375Z,13.63
2022-08-20T07:53:37.454Z,12.82
2022-08-20T07:56:05.931Z,12.18
2022-08-20T07:58:33.467Z,13.73
2022-08-20T08:01:00.442Z,12.95
2022-08-20T08:03:40.558Z,14.30
2022-08-20T08:06:14.950Z,13.10
2022-08-20T08:08:44.727Z,13.32
2022-08-20T08:11:11.257Z,12.60
2022-08-20T08:13:40.439Z,12.52
2022-08-20T08:16:08.819Z,12.48
2022-08-20T08:18:42.411Z,12.85
2022-08-20T08:21:09.822Z,12.40
2022-08-20T08:23:36.280Z,11.40
2022-08-20T08:26:03.085Z,11.48
2022-08-20T08:28:30.530Z,12.88
2022-08-20T08:30:57.622Z,10.27
2022-08-20T08:33:30.915Z,9.90
2022-08-20T08:36:12.414Z,8.20
2022-08-20T08:38:41.288Z,8.45
2022-08-20T08:41:21.543Z,7.95
2022-08-20T08:43:50.572Z,8.38
2022-08-20T08:46:22.466Z,8.02
2022-08-20T08:48:51.048Z,7.55
2022-08-20T08:51:24.831Z,9.18
2022-08-20T08:53:54.724Z,8.15
2022-08-20T08:56:24.431Z,8.55
2022-08-20T08:58:50.898Z,8.23
2022-08-20T09:01:55.615Z,7.13
2022-08-20T09:04:06.958Z,7.35
2022-08-20T09:06:33.434Z,7.05
2022-08-20T09:09:02.860Z,5.82
2022-08-20T09:11:29.716Z,6.82
2022-08-20T09:13:56.705Z,6.03
2022-08-20T09:16:24.418Z,6.10
2022-08-20T09:18:52.751Z,6.35
2022-08-20T09:21:19.435Z,6.25
2022-08-20T09:23:46.135Z,5.60
2022-08-20T09:26:13.588Z,6.15
2022-08-20T09:28:40.085Z,6.32
2022-08-20T09:31:06.524Z,6.80
2022-08-20T09:33:33.532Z,6.68
2022-08-20T09:36:00.054Z,5.75
2022-08-20T09:38:26.539Z,5.78
2022-08-20T09:40:53.122Z,5.10
2022-08-20T09:43:19.584Z,6.50
2022-08-20T09:45:46.015Z,6.15
2022-08-20T09:48:12.472Z,5.63
2022-08-20T09:50:44.237Z,7.32
2022-08-20T09:53:10.962Z,6.57
2022-08-20T09:55:39.401Z,6.50
2022-08-20T09:58:22.932Z,5.68
2022-08-20T10:00:49.427Z,6.93
2022-08-20T10:03:16.402Z,6.43
2022-08-20T10:05:43.229Z,6.78
2022-08-20T10:08:10.646Z,5.68
2022-08-20T10:10:37.367Z,6.72
2022-08-20T10:13:03.842Z,6.45
2022-08-20T10:15:30.886Z,7.43
2022-08-20T10:17:57.628Z,6.32
2022-08-20T10:20:25.608Z,6.55
2022-08-20T10:22:52.058Z,6.22
2022-08-20T10:25:18.866Z,6.25
2022-08-20T10:27:45.473Z,6.05
2022-08-20T10:30:12.229Z,6.63
2022-08-20T10:32:38.690Z,6.82
2022-08-20T10:35:05.345Z,6.88
2022-08-20T10:37:31.843Z,5.57
2022-08-20T10:39:58.342Z,5.80
2022-08-20T10:42:24.865Z,6.28
2022-08-20T10:44:51.518Z,6.28
2022-08-20T10:47:23.614Z,5.57
2022-08-20T10:49:52.081Z,5.55
2022-08-20T10:52:19.344Z,5.50
2022-08-20T10:54:46.462Z,5.57
2022-08-20T10:57:16.446Z,5.32
2022-08-20T10:59:44.729Z,5.28
2022-08-20T11:02:11.474Z,5.32
2022-08-20T11:04:38.186Z,4.93
2022-08-20T11:07:50.823Z,4.47
2022-08-20T11:10:13.993Z,4.63
2022-08-20T11:12:40.577Z,4.82
2022-08-20T11:15:09.421Z,4.95
2022-08-20T11:17:39.158Z,4.88
2022-08-20T11:20:10.523Z,5.90
2022-08-20T11:22:37.185Z,5.57
2022-08-20T11:25:05.502Z,5.03
2022-08-20T11:27:42.020Z,5.13
2022-08-20T11:30:12.032Z,5.80
2022-08-20T11:32:38.504Z,4.28
2022-08-20T11:35:24.501Z,3.55
2022-08-20T11:37:52.851Z,4.10
2022-08-20T11:40:19.692Z,3.47
2022-08-20T11:43:12.653Z,3.67
2022-08-20T11:45:37.650Z,4.43
2022-08-20T11:48:04.726Z,5.22
2022-08-20T11:50:31.202Z,4.28
2022-08-20T11:52:57.729Z,4.05
2022-08-20T11:55:29.946Z,5.28
2022-08-20T11:57:57.190Z,4.50
2022-08-20T12:00:31.946Z,4.45
2022-08-20T12:03:00.102Z,5.38
2022-08-20T12:05:27.380Z,5.32
2022-08-20T12:07:53.859Z,6.07
2022-08-20T12:10:20.539Z,4.80
2022-08-20T12:12:47.003Z,5.43
2022-08-20T12:15:13.497Z,4.50
2022-08-20T12:17:39.994Z,5.10
2022-08-20T12:20:10.415Z,4.70
2022-08-20T12:22:37.012Z,4.25
2022-08-20T12:25:04.502Z,4.80
2022-08-20T12:27:32.312Z,4.82
2022-08-20T12:30:01.058Z,4.32
2022-08-20T12:32:29.682Z,4.57
2022-08-20T12:34:56.850Z,4.20
2022-08-20T12:37:26.025Z,4.45
2022-08-20T12:39:55.378Z,4.68
2022-08-20T12:42:21.875Z,4.32
2022-08-20T12:44:48.655Z,4.00
2022-08-20T12:47:28.373Z,3.90
2022-08-20T12:50:02.909Z,4.65
2022-08-20T12:52:32.054Z,3.72
2022-08-20T12:54:58.978Z,4.15
2022-08-20T12:57:37.374Z,4.30
2022-08-20T13:00:10.645Z,4.60
2022-08-20T13:02:38.624Z,3.67
2022-08-20T13:05:05.904Z,4.30
2022-08-20T13:07:32.955Z,4.30
2022-08-20T13:10:00.286Z,4.20
2022-08-20T13:12:27.323Z,3.90
2022-08-20T13:14:53.893Z,4.50
2022-08-20T13:17:20.454Z,4.60
2022-08-20T13:20:04.265Z,4.50
2022-08-20T13:22:30.705Z,4.53
2022-08-20T13:24:57.174Z,4.80
2022-08-20T13:27:24.635Z,4.40
2022-08-20T13:29:57.867Z,4.00
2022-08-20T13:32:25.241Z,4.57
2022-08-20T13:34:51.670Z,4.68
2022-08-20T13:37:24.950Z,5.60
2022-08-20T13:39:52.042Z,5.63
2022-08-20T13:42:18.631Z,5.13
2022-08-20T13:44:45.069Z,5.78
2022-08-20T13:47:16.114Z,5.35
2022-08-20T13:49:42.553Z,6.10
2022-08-20T13:52:09.025Z,6.13
2022-08-20T13:54:35.480Z,6.10
2022-08-20T13:57:09.273Z,5.70
2022-08-20T13:59:37.935Z,6.47
2022-08-20T14:02:07.302Z,5.90
2022-08-20T14:04:34.799Z,6.97
2022-08-20T14:07:15.707Z,6.20
2022-08-20T14:09:44.474Z,5.65
2022-08-20T14:12:11.645Z,5.85
2022-08-20T14:14:38.077Z,5.10
2022-08-20T14:17:20.386Z,5.95
2022-08-20T14:19:48.030Z,5.70
2022-08-20T14:22:17.362Z,5.30
2022-08-20T14:24:44.893Z,5.13
2022-08-20T14:27:13.392Z,5.25
2022-08-20T14:29:41.582Z,5.60
2022-08-20T14:32:08.671Z,4.35
2022-08-20T14:34:35.667Z,4.80
2022-08-20T14:37:18.492Z,4.68
2022-08-20T14:39:47.461Z,5.07
2022-08-20T14:42:14.104Z,5.00
2022-08-20T14:44:41.087Z,4.70
2022-08-20T14:47:17.406Z,5.30
2022-08-20T14:49:44.971Z,5.90
2022-08-20T14:52:12.709Z,5.28
2022-08-20T14:54:39.999Z,5.07
2022-08-20T14:57:08.825Z,5.07
2022-08-20T14:59:41.037Z,4.55
2022-08-20T15:02:09.794Z,4.43
2022-08-20T15:04:37.011Z,3.70
2022-08-20T15:07:11.093Z,3.35
2022-08-20T15:09:40.049Z,3.00
2022-08-20T15:12:06.534Z,2.78
2022-08-20T15:14:33.000Z,2.60
2022-08-20T15:17:00.065Z,2.30
2022-08-20T15:19:26.511Z,2.30
2022-08-20T15:21:52.942Z,2.10
2022-08-20T15:24:19.694Z,2.13
2022-08-20T15:26:46.355Z,2.00
2022-08-20T15:29:13.294Z,1.20
2022-08-20T15:31:49.507Z,1.38
2022-08-20T15:34:17.771Z,1.38
2022-08-20T15:36:44.620Z,1.10
2022-08-20T15:39:11.068Z,0.90
2022-08-20T15:41:37.492Z,1.20
2022-08-20T15:44:04.067Z,1.05
2022-08-20T15:46:33.619Z,1.40
2022-08-20T15:49:04.072Z,1.40
2022-08-20T15:51:40.694Z,1.55
2022-08-20T15:54:16.405Z,1.48
2022-08-20T15:57:05.806Z,1.20
2022-08-20T15:59:52.037Z,1.40
2022-08-20T16:02:48.053Z,1.52
2022-08-20T16:05:28.400Z,1.65
2022-08-20T16:08:25.577Z,1.50
2022-08-20T16:11:19.968Z,1.60
2022-08-20T16:14:03.254Z,1.40
2022-08-20T16:16:33.930Z,1.77
2022-08-20T16:19:00.644Z,1.33
2022-08-20T16:21:38.376Z,1.60
2022-08-20T16:24:06.108Z,1.60
2022-08-20T16:26:51.286Z,1.40
2022-08-20T16:29:19.843Z,1.50
2022-08-20T16:31:50.203Z,1.40
2022-08-20T16:34:34.887Z,1.55
2022-08-20T16:37:25.162Z,1.30
2022-08-20T16:40:08.371Z,1.30
2022-08-20T16:42:37.850Z,1.10
2022-08-20T16:45:07.476Z,1.33
2022-08-20T16:47:36.105Z,1.30
2022-08-20T16:50:12.869Z,1.30
2022-08-20T16:52:42.617Z,1.20
2022-08-20T16:55:09.602Z,1.38
2022-08-20T16:57:36.087Z,1.40
2022-08-20T17:00:24.938Z,1.40
2022-08-20T17:02:59.992Z,1.20
2022-08-20T17:05:31.476Z,0.90
2022-08-20T17:08:03.664Z,0.98
2022-08-20T17:10:55.470Z,0.85
2022-08-20T17:13:28.131Z,0.90
2022-08-20T17:15:58.508Z,0.95
2022-08-20T17:18:37.004Z,1.20
2022-08-20T17:21:07.820Z,1.05
2022-08-20T17:23:54.789Z,0.98
2022-08-20T17:26:32.276Z,0.88
2022-08-20T17:29:00.735Z,1.00
2022-08-20T17:31:39.244Z,0.90
2022-08-20T17:34:05.947Z,0.80
2022-08-20T17:36:34.161Z,0.90
2022-08-20T17:39:01.308Z,0.80
2022-08-20T17:41:31.421Z,0.77
2022-08-20T17:44:09.141Z,0.57
2022-08-20T17:46:41.795Z,0.68
2022-08-20T17:49:10.666Z,0.68
2022-08-20T17:51:47.425Z,0.65
2022-08-20T17:54:29.363Z,0.52
2022-08-20T17:57:02.188Z,0.45
2022-08-20T18:00:01.505Z,0.50
2022-08-20T18:02:19.463Z,0.52
2022-08-20T18:04:47.092Z,0.60
2022-08-20T18:07:35.702Z,0.60
2022-08-20T18:10:05.114Z,0.60
2022-08-20T18:12:37.033Z,0.50
2022-08-20T18:15:20.246Z,0.68
2022-08-20T18:17:56.171Z,0.40
2022-08-20T18:21:05.453Z,0.50
2022-08-20T18:23:37.739Z,0.50
2022-08-20T18:26:17.699Z,0.50
2022-08-20T18:28:47.240Z,0.43
2022-08-20T18:31:33.773Z,0.50
2022-08-20T18:34:11.335Z,0.52
2022-08-20T18:36:37.777Z,0.50
2022-08-20T18:39:11.042Z,0.70
2022-08-20T18:41:41.450Z,0.50
2022-08-20T18:44:13.652Z,0.50
2022-08-20T18:46:54.378Z,0.55
2022-08-20T18:49:32.763Z,0.65
2022-08-20T18:52:09.277Z,0.60
2022-08-20T18:54:36.290Z,0.50
2022-08-20T18:57:06.235Z,0.50
2022-08-20T18:59:37.051Z,0.40
2022-08-20T19:02:14.933Z,0.50
2022-08-20T19:04:42.075Z,0.60
2022-08-20T19:07:11.326Z,0.60
2022-08-20T19:10:12.931Z,0.80
2022-08-20T19:13:33.470Z,0.60
2022-08-20T19:16:09.383Z,0.50
2022-08-20T19:18:51.715Z,0.60
2022-08-20T19:21:42.311Z,0.70
2022-08-20T19:24:09.506Z,0.60
2022-08-20T19:26:42.828Z,0.98
2022-08-20T19:29:14.108Z,1.00
2022-08-20T19:31:41.773Z,0.85
2022-08-20T19:34:21.719Z,0.75
2022-08-20T19:37:02.303Z,0.73
2022-08-20T19:39:50.585Z,0.70
2022-08-20T19:42:20.524Z,0.90
2022-08-20T19:45:03.281Z,0.85
2022-08-20T19:47:31.438Z,0.90
2022-08-20T19:50:22.117Z,0.90
2022-08-20T19:53:29.916Z,0.70
2022-08-20T19:56:02.434Z,0.70
2022-08-20T19:58:31.137Z,0.70
2022-08-20T20:00:58.183Z,0.80
2022-08-20T20:03:32.072Z,0.80
2022-08-20T20:06:16.134Z,0.80
2022-08-20T20:08:58.818Z,0.63
2022-08-20T20:11:49.856Z,0.60
2022-08-20T20:14:17.737Z,0.80
2022-08-20T20:16:49.747Z,0.50
2022-08-20T20:19:26.338Z,0.52
2022-08-20T20:22:17.336Z,0.50
2022-08-20T20:24:50.781Z,0.63
2022-08-20T20:27:25.887Z,0.60
2022-08-20T20:30:06.221Z,0.85
2022-08-20T20:32:33.951Z,0.52
2022-08-20T20:35:03.178Z,0.82
2022-08-20T20:37:49.922Z,0.80
2022-08-20T20:40:48.432Z,0.80
2022-08-20T20:43:34.469Z,1.00
2022-08-20T20:46:12.565Z,0.73
2022-08-20T20:48:52.070Z,0.90
2022-08-20T20:51:25.004Z,0.85
2022-08-20T20:53:55.006Z,0.80
2022-08-20T20:56:42.387Z,0.73
2022-08-20T20:59:10.778Z,0.85
2022-08-20T21:01:48.274Z,1.05
2022-08-20T21:04:19.968Z,1.08
2022-08-20T21:06:46.439Z,1.10
2022-08-20T21:09:12.960Z,1.20
2022-08-20T21:11:39.405Z,1.30
2022-08-20T21:14:05.853Z,1.08
2022-08-20T21:16:32.365Z,1.00
2022-08-20T21:18:58.816Z,1.30
2022-08-20T21:21:25.278Z,1.17
2022-08-20T21:23:51.737Z,1.50
2022-08-20T21:26:18.671Z,1.33
2022-08-20T21:28:45.127Z,1.00
2022-08-20T21:31:11.591Z,1.23
2022-08-20T21:33:38.060Z,1.20
2022-08-20T21:36:04.572Z,1.30
2022-08-20T21:38:31.016Z,1.30
2022-08-20T21:40:58.198Z,1.30
2022-08-20T21:43:24.932Z,1.30
2022-08-20T21:45:51.583Z,1.42
2022-08-20T21:48:18.714Z,1.20
2022-08-20T21:50:45.148Z,1.23
2022-08-20T21:53:13.156Z,1.30
2022-08-20T21:55:40.297Z,1.33
2022-08-20T21:58:06.925Z,1.60
2022-08-20T22:01:00.823Z,1.48
2022-08-20T22:03:29.644Z,1.40
2022-08-20T22:05:58.866Z,1.45
2022-08-20T22:08:28.642Z,1.35
2022-08-20T22:10:57.009Z,1.30
2022-08-20T22:13:24.586Z,1.08
2022-08-20T22:15:51.054Z,1.40
2022-08-20T22:18:17.706Z,1.75
2022-08-20T22:20:44.450Z,1.77
2022-08-20T22:23:11.572Z,2.13
2022-08-20T22:25:38.041Z,1.80
2022-08-20T22:28:04.839Z,2.05
2022-08-20T22:30:31.514Z,2.22
2022-08-20T22:33:02.010Z,2.10
2022-08-20T22:35:29.289Z,2.33
2022-08-20T22:37:55.743Z,2.25
2022-08-20T22:40:22.250Z,2.45
2022-08-20T22:42:48.714Z,2.45
2022-08-20T22:45:15.239Z,2.05
2022-08-20T22:47:42.203Z,2.22
2022-08-20T22:50:09.566Z,2.28
2022-08-20T22:52:37.415Z,2.20
2022-08-20T22:55:05.959Z,1.95
2022-08-20T22:57:34.227Z,1.83
2022-08-20T23:00:01.199Z,1.80
2022-08-20T23:02:27.703Z,1.70
2022-08-20T23:04:54.241Z,1.55
2022-08-20T23:07:20.748Z,1.60
2022-08-20T23:09:47.186Z,1.60
2022-08-20T23:12:13.640Z,1.52
2022-08-20T23:14:40.058Z,1.70
2022-08-20T23:17:18.985Z,1.70
2022-08-20T23:19:47.325Z,1.30
2022-08-20T23:22:14.024Z,1.38
2022-08-20T23:24:40.594Z,1.15
2022-08-20T23:27:08.070Z,1.10
2022-08-20T23:29:34.538Z,1.40
2022-08-20T23:32:01.005Z,1.02
2022-08-20T23:34:27.723Z,1.60
2022-08-20T23:36:55.817Z,1.42
2022-08-20T23:39:22.732Z,1.23
2022-08-20T23:41:49.206Z,1.15
2022-08-20T23:44:26.127Z,1.50
2022-08-20T23:46:55.074Z,1.17
2022-08-20T23:49:21.633Z,1.30
2022-08-20T23:51:48.153Z,1.10
2022-08-20T23:54:14.597Z,1.30
2022-08-20T23:56:41.036Z,1.13
2022-08-20T23:59:07.477Z,1.02
